createdAt,value
2018-04-13T00:01:02.926Z,9.10
2018-04-13T00:03:29.799Z,8.80
2018-04-13T00:05:56.791Z,9.77
2018-04-13T00:08:23.732Z,9.03
2018-04-13T00:10:50.580Z,8.70
2018-04-13T00:13:17.554Z,9.40
2018-04-13T00:15:44.425Z,9.03
2018-04-13T00:18:11.280Z,8.57
2018-04-13T00:20:38.159Z,8.43
2018-04-13T00:23:05.202Z,8.13
2018-04-13T00:25:32.045Z,7.60
2018-04-13T00:27:58.894Z,7.87
2018-04-13T00:30:25.767Z,8.27
2018-04-13T00:32:52.717Z,7.70
2018-04-13T00:35:19.623Z,7.70
2018-04-13T00:37:46.936Z,8.03
2018-04-13T00:40:13.803Z,7.90
2018-04-13T00:42:40.641Z,7.47
2018-04-13T00:45:07.612Z,7.50
2018-04-13T00:47:34.464Z,7.90
2018-04-13T00:50:01.430Z,7.80
2018-04-13T00:52:28.278Z,7.70
2018-04-13T00:54:55.159Z,7.53
2018-04-13T00:57:22.012Z,7.80
2018-04-13T00:59:48.859Z,8.30
2018-04-13T01:02:15.733Z,8.87
2018-04-13T01:04:42.701Z,8.57
2018-04-13T01:07:09.567Z,8.30
2018-04-13T01:09:36.490Z,8.57
2018-04-13T01:12:03.357Z,9.10
2018-04-13T01:14:30.320Z,8.50
2018-04-13T01:16:57.166Z,8.17
2018-04-13T01:19:24.023Z,7.60
2018-04-13T01:21:50.883Z,8.50
2018-04-13T01:24:17.823Z,8.47
2018-04-13T01:26:44.669Z,8.40
2018-04-13T01:29:11.590Z,8.33
2018-04-13T01:31:38.451Z,7.80
2018-04-13T01:34:05.460Z,8.23
2018-04-13T01:36:32.415Z,8.30
2018-04-13T01:38:59.270Z,8.57
2018-04-13T01:41:26.135Z,8.20
2018-04-13T01:43:53.083Z,8.30
2018-04-13T01:46:19.950Z,8.10
2018-04-13T01:48:46.792Z,8.30
2018-04-13T01:51:13.659Z,8.67
2018-04-13T01:53:40.622Z,8.33
2018-04-13T01:56:07.684Z,9.07
2018-04-13T01:58:34.631Z,9.07
2018-04-13T02:01:01.603Z,8.27
2018-04-13T02:03:28.760Z,9.27
2018-04-13T02:05:55.631Z,9.33
2018-04-13T02:08:22.496Z,9.00
2018-04-13T02:10:49.437Z,8.10
2018-04-13T02:13:16.292Z,9.63
2018-04-13T02:15:43.143Z,9.40
2018-04-13T02:18:10.103Z,9.60
2018-04-13T02:20:37.064Z,11.00
2018-04-13T02:23:03.931Z,9.60
2018-04-13T02:25:30.875Z,9.97
2018-04-13T02:27:57.844Z,11.33
2018-04-13T02:30:24.809Z,10.17
2018-04-13T02:32:51.647Z,9.03
2018-04-13T02:35:18.608Z,9.57
2018-04-13T02:37:45.471Z,9.90
2018-04-13T02:40:12.321Z,10.63
2018-04-13T02:42:39.191Z,9.93
2018-04-13T02:45:06.056Z,10.40
2018-04-13T02:47:32.900Z,10.10
2018-04-13T02:49:59.862Z,9.67
2018-04-13T02:52:26.715Z,9.33
2018-04-13T02:54:53.576Z,9.53
2018-04-13T02:57:20.528Z,10.30
2018-04-13T02:59:47.387Z,10.40
2018-04-13T03:02:14.277Z,11.00
2018-04-13T03:04:41.203Z,11.00
2018-04-13T03:07:08.054Z,11.50
2018-04-13T03:09:34.919Z,10.90
2018-04-13T03:12:01.764Z,12.23
2018-04-13T03:14:28.731Z,11.40
2018-04-13T03:16:55.579Z,12.50
2018-04-13T03:19:22.445Z,12.27
2018-04-13T03:21:49.306Z,12.90
2018-04-13T03:24:16.163Z,12.57
2018-04-13T03:26:43.107Z,14.00
2018-04-13T03:29:10.355Z,14.37
2018-04-13T03:31:37.652Z,13.73
2018-04-13T03:34:04.602Z,12.47
2018-04-13T03:36:31.455Z,13.77
2018-04-13T03:38:58.439Z,14.20
2018-04-13T03:41:25.299Z,14.53
2018-04-13T03:43:52.169Z,15.30
2018-04-13T03:46:19.094Z,14.80
2018-04-13T03:48:45.959Z,15.07
2018-04-13T03:51:12.804Z,16.70
2018-04-13T03:53:39.799Z,14.33
2018-04-13T03:56:06.766Z,15.27
2018-04-13T03:58:33.615Z,17.30
2018-04-13T04:01:00.555Z,16.37
2018-04-13T04:03:27.511Z,16.87
2018-04-13T04:05:54.478Z,18.07
2018-04-13T04:08:21.327Z,18.17
2018-04-13T04:10:48.210Z,17.07
2018-04-13T04:13:15.055Z,18.70
2018-04-13T04:15:41.918Z,17.90
2018-04-13T04:18:09.739Z,18.37
2018-04-13T04:20:49.003Z,17.67
2018-04-13T04:23:27.919Z,18.10
2018-04-13T04:26:06.708Z,17.73
2018-04-13T04:28:33.672Z,18.37
2018-04-13T04:31:00.520Z,17.97
2018-04-13T04:33:27.383Z,20.57
2018-04-13T04:35:54.241Z,20.90
2018-04-13T04:38:21.192Z,20.07
2018-04-13T04:40:48.052Z,21.50
2018-04-13T04:43:15.033Z,20.30
2018-04-13T04:45:41.904Z,21.40
2018-04-13T04:48:08.804Z,22.10
2018-04-13T04:50:36.190Z,21.57
2018-04-13T04:53:03.042Z,21.47
2018-04-13T04:55:29.913Z,21.53
2018-04-13T04:57:56.859Z,23.00
2018-04-13T05:00:23.711Z,22.97
2018-04-13T05:02:50.568Z,22.33
2018-04-13T05:05:17.407Z,22.33
2018-04-13T05:07:44.700Z,21.47
2018-04-13T05:10:11.621Z,20.60
2018-04-13T05:12:38.940Z,19.70
2018-04-13T05:15:05.812Z,20.27
2018-04-13T05:17:32.741Z,19.00
2018-04-13T05:19:59.594Z,18.47
2018-04-13T05:22:26.466Z,18.70
2018-04-13T05:24:53.435Z,19.03
2018-04-13T05:27:20.407Z,20.00
2018-04-13T05:29:47.275Z,19.63
2018-04-13T05:32:14.187Z,20.07
2018-04-13T05:34:41.072Z,20.30
2018-04-13T05:37:07.949Z,20.53
2018-04-13T05:39:34.812Z,18.27
2018-04-13T05:42:01.651Z,19.03
2018-04-13T05:44:28.580Z,19.57
2018-04-13T05:46:55.454Z,18.77
2018-04-13T05:49:22.310Z,20.20
2018-04-13T05:51:49.207Z,17.90
2018-04-13T05:54:16.561Z,18.30
2018-04-13T05:56:43.415Z,18.50
2018-04-13T05:59:10.434Z,20.40
2018-04-13T06:01:37.306Z,17.67
2018-04-13T06:04:04.159Z,19.17
2018-04-13T06:06:31.027Z,18.30
2018-04-13T06:08:57.958Z,18.77
2018-04-13T06:11:24.816Z,19.23
2018-04-13T06:13:51.690Z,16.17
2018-04-13T06:16:18.549Z,15.63
2018-04-13T06:18:45.498Z,16.77
2018-04-13T06:21:12.454Z,15.63
2018-04-13T06:23:39.330Z,15.63
2018-04-13T06:26:06.234Z,14.63
2018-04-13T06:28:33.495Z,12.97
2018-04-13T06:31:00.791Z,13.43
2018-04-13T06:33:28.190Z,13.07
2018-04-13T06:35:55.052Z,12.40
2018-04-13T06:38:21.924Z,12.07
2018-04-13T06:40:48.767Z,12.73
2018-04-13T06:43:15.661Z,13.40
2018-04-13T06:45:42.968Z,10.97
2018-04-13T06:48:09.924Z,11.50
2018-04-13T06:50:36.909Z,11.37
2018-04-13T06:53:03.764Z,11.37
2018-04-13T06:55:30.640Z,11.30
2018-04-13T06:57:57.492Z,11.90
2018-04-13T07:00:24.384Z,12.83
2018-04-13T07:02:51.638Z,11.93
2018-04-13T07:05:18.918Z,11.80
2018-04-13T07:07:46.158Z,11.93
2018-04-13T07:10:13.034Z,12.70
2018-04-13T07:12:40.347Z,12.77
2018-04-13T07:15:07.321Z,11.70
2018-04-13T07:17:34.191Z,13.83
2018-04-13T07:20:01.116Z,13.87
2018-04-13T07:22:28.006Z,14.60
2018-04-13T07:24:54.868Z,14.43
2018-04-13T07:27:21.727Z,13.50
2018-04-13T07:29:48.728Z,14.23
2018-04-13T07:32:15.963Z,13.93
2018-04-13T07:34:42.924Z,18.60
2018-04-13T07:37:09.798Z,20.13
2018-04-13T07:39:36.660Z,19.37
2018-04-13T07:42:03.531Z,20.00
2018-04-13T07:44:30.404Z,20.20
2018-04-13T07:46:57.363Z,20.70
2018-04-13T07:49:24.216Z,19.70
2018-04-13T07:51:51.085Z,20.20
2018-04-13T07:54:17.939Z,20.70
2018-04-13T07:56:44.887Z,19.47
2018-04-13T07:59:11.779Z,18.80
2018-04-13T08:01:38.670Z,19.37
2018-04-13T08:04:06.064Z,18.63
2018-04-13T08:06:33.300Z,17.70
2018-04-13T08:09:00.580Z,17.37
2018-04-13T08:11:27.895Z,18.80
2018-04-13T08:13:54.998Z,20.40
2018-04-13T08:16:21.653Z,20.23
2018-04-13T08:18:48.505Z,19.73
2018-04-13T08:21:15.796Z,19.80
2018-04-13T08:23:43.072Z,19.30
2018-04-13T08:26:10.052Z,18.00
2018-04-13T08:28:36.906Z,17.20
2018-04-13T08:31:03.771Z,17.40
2018-04-13T08:33:30.659Z,16.90
2018-04-13T08:35:57.589Z,17.97
2018-04-13T08:38:24.553Z,18.63
2018-04-13T08:40:51.434Z,19.20
2018-04-13T08:43:18.312Z,19.90
2018-04-13T08:45:45.160Z,20.00
2018-04-13T08:48:12.158Z,19.33
2018-04-13T08:50:39.464Z,19.87
2018-04-13T08:53:06.413Z,20.00
2018-04-13T08:55:33.277Z,21.40
2018-04-13T08:58:00.218Z,23.13
2018-04-13T09:00:27.071Z,22.63
2018-04-13T09:02:53.979Z,22.53
2018-04-13T09:05:20.836Z,21.27
2018-04-13T09:07:47.743Z,20.23
2018-04-13T09:10:14.623Z,22.83
2018-04-13T09:12:41.503Z,22.00
2018-04-13T09:15:08.437Z,23.43
2018-04-13T09:17:35.299Z,24.07
2018-04-13T09:20:02.171Z,23.50
2018-04-13T09:22:29.033Z,22.57
2018-04-13T09:24:55.891Z,21.77
2018-04-13T09:27:22.815Z,23.20
2018-04-13T09:29:49.670Z,23.60
2018-04-13T09:32:16.620Z,22.50
2018-04-13T09:34:43.492Z,25.47
2018-04-13T09:37:10.470Z,23.53
2018-04-13T09:39:37.348Z,23.47
2018-04-13T09:42:04.675Z,23.37
2018-04-13T09:44:31.631Z,20.83
2018-04-13T09:46:58.516Z,21.40
2018-04-13T09:49:25.387Z,19.53
2018-04-13T09:51:52.291Z,18.67
2018-04-13T09:54:19.171Z,20.13
2018-04-13T09:56:46.111Z,21.70
2018-04-13T09:59:13.082Z,21.80
2018-04-13T10:01:39.965Z,25.07
2018-04-13T10:04:07.024Z,28.00
2018-04-13T10:06:33.888Z,30.47
2018-04-13T10:09:00.786Z,31.20
2018-04-13T10:11:28.179Z,29.80
2018-04-13T10:13:55.028Z,33.60
2018-04-13T10:16:21.988Z,30.63
2018-04-13T10:18:48.960Z,33.93
2018-04-13T10:21:15.820Z,31.33
2018-04-13T10:23:42.767Z,33.87
2018-04-13T10:26:09.644Z,31.63
2018-04-13T10:28:36.798Z,32.80
2018-04-13T10:31:03.835Z,31.17
2018-04-13T10:33:30.787Z,34.40
2018-04-13T10:35:58.084Z,29.70
2018-04-13T10:38:24.947Z,30.70
2018-04-13T10:40:51.805Z,31.67
2018-04-13T10:43:18.731Z,32.23
2018-04-13T10:45:45.579Z,29.27
2018-04-13T10:48:12.463Z,30.93
2018-04-13T10:50:39.318Z,30.00
2018-04-13T10:53:06.231Z,29.50
2018-04-13T10:55:33.085Z,29.80
2018-04-13T10:57:59.992Z,30.20
2018-04-13T11:00:26.835Z,28.20
2018-04-13T11:02:53.798Z,28.13
2018-04-13T11:05:20.675Z,29.80
2018-04-13T11:07:47.616Z,29.50
2018-04-13T11:10:14.540Z,27.63
2018-04-13T11:12:41.432Z,28.67
2018-04-13T11:15:08.292Z,29.60
2018-04-13T11:17:35.155Z,29.60
2018-04-13T11:20:02.002Z,29.03
2018-04-13T11:22:28.960Z,31.20
2018-04-13T11:24:55.966Z,29.00
2018-04-13T11:27:22.775Z,28.30
2018-04-13T11:29:49.620Z,27.50
2018-04-13T11:32:16.495Z,27.17
2018-04-13T11:34:43.354Z,29.57
2018-04-13T11:37:10.213Z,30.93
2018-04-13T11:39:37.082Z,32.53
2018-04-13T11:42:04.025Z,31.87
2018-04-13T11:44:30.878Z,31.50
2018-04-13T11:46:57.833Z,31.63
2018-04-13T11:49:24.703Z,33.07
2018-04-13T11:51:51.564Z,30.27
2018-04-13T11:54:18.507Z,31.60
2018-04-13T11:56:45.492Z,31.43
2018-04-13T11:59:12.346Z,29.93
2018-04-13T12:01:39.209Z,31.70
2018-04-13T12:04:06.163Z,29.70
2018-04-13T12:06:33.100Z,28.77
2018-04-13T12:09:00.050Z,28.57
2018-04-13T12:11:27.015Z,29.80
2018-04-13T12:13:53.860Z,30.40
2018-04-13T12:16:20.728Z,29.27
2018-04-13T12:18:47.592Z,32.37
2018-04-13T12:21:14.551Z,30.67
2018-04-13T12:23:41.411Z,27.73
2018-04-13T12:26:08.283Z,23.77
2018-04-13T12:28:35.145Z,18.47
2018-04-13T12:31:02.091Z,14.80
2018-04-13T12:33:29.028Z,14.27
2018-04-13T12:35:56.339Z,12.40
2018-04-13T12:38:23.220Z,11.93
2018-04-13T12:40:50.106Z,10.97
2018-04-13T12:43:16.984Z,9.23
2018-04-13T12:45:43.959Z,8.77
2018-04-13T12:48:11.050Z,7.93
2018-04-13T12:50:38.041Z,9.20
2018-04-13T12:53:05.353Z,6.33
2018-04-13T12:55:32.585Z,4.50
2018-04-13T12:57:59.594Z,4.30
2018-04-13T13:00:26.506Z,4.20
2018-04-13T13:02:53.355Z,4.13
2018-04-13T13:05:20.229Z,4.87
2018-04-13T13:07:47.100Z,3.10
2018-04-13T13:10:14.079Z,3.63
2018-04-13T13:12:41.024Z,3.00
2018-04-13T13:15:07.903Z,3.60
2018-04-13T13:17:34.808Z,3.17
2018-04-13T13:20:01.673Z,3.23
2018-04-13T13:22:28.618Z,3.33
2018-04-13T13:24:55.591Z,3.80
2018-04-13T13:27:22.502Z,4.23
2018-04-13T13:29:49.351Z,3.20
2018-04-13T13:32:16.227Z,3.63
2018-04-13T13:34:43.536Z,2.90
2018-04-13T13:37:10.428Z,3.10
2018-04-13T13:39:37.334Z,3.67
2018-04-13T13:42:04.205Z,3.40
2018-04-13T13:44:31.175Z,3.50
2018-04-13T13:46:58.052Z,3.20
2018-04-13T13:49:24.991Z,2.87
2018-04-13T13:51:51.833Z,2.80
2018-04-13T13:54:18.698Z,3.00
2018-04-13T13:56:45.652Z,3.30
2018-04-13T13:59:12.524Z,3.30
2018-04-13T14:01:39.412Z,2.93
2018-04-13T14:04:06.354Z,2.77
2018-04-13T14:06:38.038Z,3.20
2018-04-13T14:09:05.799Z,3.57
2018-04-13T14:11:32.635Z,3.70
2018-04-13T14:13:59.609Z,3.97
2018-04-13T14:16:26.476Z,3.87
2018-04-13T14:18:53.388Z,5.03
2018-04-13T14:21:20.657Z,4.07
2018-04-13T14:23:47.905Z,4.00
2018-04-13T14:26:15.165Z,4.53
2018-04-13T14:28:42.501Z,4.33
2018-04-13T14:31:09.367Z,4.90
2018-04-13T14:33:36.219Z,5.07
2018-04-13T14:36:03.087Z,3.53
2018-04-13T14:38:29.938Z,4.00
2018-04-13T14:40:56.848Z,4.20
2018-04-13T14:43:23.709Z,3.50
2018-04-13T14:45:50.569Z,4.90
2018-04-13T14:48:17.479Z,4.13
2018-04-13T14:50:44.380Z,5.00
2018-04-13T14:53:11.244Z,4.13
2018-04-13T14:55:38.187Z,4.47
2018-04-13T14:58:05.065Z,4.60
2018-04-13T15:00:32.028Z,5.40
2018-04-13T15:02:58.989Z,4.50
2018-04-13T15:05:25.850Z,5.30
2018-04-13T15:07:52.803Z,4.90
2018-04-13T15:10:19.665Z,5.03
2018-04-13T15:12:46.632Z,5.83
2018-04-13T15:15:13.517Z,6.10
2018-04-13T15:17:40.403Z,6.30
2018-04-13T15:20:07.729Z,6.50
2018-04-13T15:22:34.663Z,6.67
2018-04-13T15:25:01.532Z,6.70
2018-04-13T15:27:28.480Z,6.60
2018-04-13T15:29:55.428Z,8.20
2018-04-13T15:32:22.296Z,6.37
2018-04-13T15:34:49.159Z,8.20
2018-04-13T15:37:16.113Z,7.30
2018-04-13T15:39:43.070Z,6.73
2018-04-13T15:42:09.934Z,7.00
2018-04-13T15:44:36.856Z,8.47
2018-04-13T15:47:04.106Z,9.40
2018-04-13T15:49:30.968Z,9.50
2018-04-13T15:51:57.865Z,8.27
2018-04-13T15:54:24.732Z,8.77
2018-04-13T15:56:51.590Z,9.97
2018-04-13T15:59:18.423Z,8.87
2018-04-13T16:01:45.284Z,10.47
2018-04-13T16:04:12.131Z,11.07
2018-04-13T16:06:39.415Z,11.10
2018-04-13T16:09:06.251Z,9.30
2018-04-13T16:11:33.547Z,10.07
2018-04-13T16:14:00.515Z,9.77
2018-04-13T16:16:27.370Z,9.47
2018-04-13T16:18:54.247Z,11.30
2018-04-13T16:21:21.084Z,11.73
2018-04-13T16:23:47.946Z,11.53
2018-04-13T16:26:14.916Z,14.90
2018-04-13T16:28:41.798Z,13.60
2018-04-13T16:31:08.664Z,13.20
2018-04-13T16:33:35.972Z,13.23
2018-04-13T16:36:02.836Z,13.87
2018-04-13T16:38:29.830Z,13.17
2018-04-13T16:40:56.668Z,12.60
2018-04-13T16:43:23.613Z,13.33
2018-04-13T16:45:50.474Z,14.07
2018-04-13T16:48:17.448Z,13.70
2018-04-13T16:50:44.297Z,14.00
2018-04-13T16:53:11.247Z,14.37
2018-04-13T16:55:38.130Z,13.63
2018-04-13T16:58:05.018Z,13.20
2018-04-13T17:00:31.920Z,13.83
2018-04-13T17:02:58.804Z,13.70
2018-04-13T17:05:25.652Z,12.83
2018-04-13T17:07:52.594Z,14.93
2018-04-13T17:10:19.456Z,14.63
2018-04-13T17:12:46.304Z,12.97
2018-04-13T17:15:13.205Z,13.03
2018-04-13T17:17:40.083Z,14.43
2018-04-13T17:20:07.356Z,13.30
2018-04-13T17:22:34.243Z,14.03
2018-04-13T17:25:01.113Z,15.33
2018-04-13T17:27:28.023Z,18.27
2018-04-13T17:29:55.319Z,18.90
2018-04-13T17:32:22.280Z,15.13
2018-04-13T17:34:49.131Z,17.10
2018-04-13T17:37:15.976Z,18.67
2018-04-13T17:39:43.021Z,16.60
2018-04-13T17:42:10.309Z,14.53
2018-04-13T17:44:37.175Z,18.63
2018-04-13T17:47:04.229Z,15.83
2018-04-13T17:49:31.451Z,16.77
2018-04-13T17:51:58.328Z,16.70
2018-04-13T17:54:25.583Z,16.20
2018-04-13T17:56:52.446Z,19.83
2018-04-13T17:59:19.697Z,16.33
2018-04-13T18:01:46.618Z,17.30
2018-04-13T18:04:13.464Z,15.27
2018-04-13T18:06:40.336Z,19.30
2018-04-13T18:09:07.187Z,16.40
2018-04-13T18:11:34.039Z,18.73
2018-04-13T18:14:00.903Z,18.50
2018-04-13T18:16:27.774Z,18.27
2018-04-13T18:18:54.699Z,19.90
2018-04-13T18:21:21.664Z,17.00
2018-04-13T18:23:48.505Z,16.50
2018-04-13T18:26:15.383Z,16.10
2018-04-13T18:28:42.226Z,16.40
2018-04-13T18:31:09.109Z,19.37
2018-04-13T18:33:36.036Z,21.50
2018-04-13T18:36:02.919Z,22.53
2018-04-13T18:38:29.885Z,22.43
2018-04-13T18:40:56.827Z,21.60
2018-04-13T18:43:23.703Z,22.07
2018-04-13T18:45:50.556Z,27.93
2018-04-13T18:48:17.444Z,26.63
2018-04-13T18:50:44.307Z,24.83
2018-04-13T18:53:11.320Z,26.27
2018-04-13T18:55:38.179Z,28.13
2018-04-13T18:58:05.143Z,28.17
2018-04-13T19:00:31.900Z,32.30
2018-04-13T19:02:58.778Z,31.57
2018-04-13T19:05:25.642Z,31.30
2018-04-13T19:07:52.509Z,28.50
2018-04-13T19:10:19.379Z,29.00
2018-04-13T19:12:46.659Z,31.43
2018-04-13T19:15:13.941Z,27.70
2018-04-13T19:17:40.812Z,28.37
2018-04-13T19:20:07.680Z,30.67
2018-04-13T19:22:34.535Z,31.10
2018-04-13T19:25:01.496Z,29.27
2018-04-13T19:27:28.360Z,30.40
2018-04-13T19:29:55.229Z,28.07
2018-04-13T19:32:22.164Z,28.93
2018-04-13T19:34:49.052Z,28.53
2018-04-13T19:37:15.993Z,27.93
2018-04-13T19:39:42.931Z,28.40
2018-04-13T19:42:09.958Z,27.27
2018-04-13T19:44:36.821Z,27.97
2018-04-13T19:47:03.675Z,28.83
2018-04-13T19:49:31.008Z,31.37
2018-04-13T19:51:58.166Z,29.93
2018-04-13T19:54:25.040Z,29.77
2018-04-13T19:56:52.328Z,28.80
2018-04-13T19:59:19.603Z,27.90
2018-04-13T20:01:46.479Z,26.03
2018-04-13T20:04:13.346Z,25.93
2018-04-13T20:06:40.204Z,27.43
2018-04-13T20:09:07.180Z,27.80
2018-04-13T20:11:34.043Z,26.87
2018-04-13T20:14:00.907Z,29.57
2018-04-13T20:16:27.810Z,29.47
2018-04-13T20:18:54.774Z,32.30
2018-04-13T20:21:21.779Z,29.23
2018-04-13T20:23:48.714Z,31.00
2018-04-13T20:26:15.668Z,32.70
2018-04-13T20:28:42.548Z,34.33
2018-04-13T20:31:09.403Z,30.67
2018-04-13T20:33:36.283Z,31.17
2018-04-13T20:36:03.545Z,32.63
2018-04-13T20:38:30.447Z,30.23
2018-04-13T20:40:57.271Z,32.93
2018-04-13T20:43:24.736Z,33.50
2018-04-13T20:45:51.643Z,34.57
2018-04-13T20:48:18.516Z,33.07
2018-04-13T20:50:45.459Z,34.17
2018-04-13T20:53:12.329Z,32.27
2018-04-13T20:55:39.200Z,29.60
2018-04-13T20:58:06.143Z,32.97
2018-04-13T21:00:33.015Z,33.97
2018-04-13T21:02:59.883Z,32.93
2018-04-13T21:05:26.776Z,33.23
2018-04-13T21:07:54.051Z,33.30
2018-04-13T21:10:21.032Z,34.03
2018-04-13T21:12:47.993Z,34.33
2018-04-13T21:15:14.840Z,33.50
2018-04-13T21:17:41.713Z,33.70
2018-04-13T21:20:08.578Z,33.37
2018-04-13T21:22:35.516Z,31.17
2018-04-13T21:25:02.379Z,32.63
2018-04-13T21:27:29.333Z,31.30
2018-04-13T21:29:56.202Z,32.20
2018-04-13T21:32:23.087Z,32.53
2018-04-13T21:34:49.937Z,33.57
2018-04-13T21:37:16.803Z,32.90
2018-04-13T21:39:43.647Z,34.43
2018-04-13T21:42:10.593Z,35.43
2018-04-13T21:44:37.487Z,38.80
2018-04-13T21:47:04.365Z,32.80
2018-04-13T21:49:31.612Z,36.70
2018-04-13T21:51:58.480Z,35.87
2018-04-13T21:54:25.719Z,31.93
2018-04-13T21:56:52.653Z,36.70
2018-04-13T21:59:19.522Z,37.07
2018-04-13T22:01:46.368Z,33.73
2018-04-13T22:04:13.240Z,36.30
2018-04-13T22:06:40.202Z,37.57
2018-04-13T22:09:07.158Z,32.70
2018-04-13T22:11:34.103Z,36.37
2018-04-13T22:14:12.981Z,34.70
2018-04-13T22:16:39.854Z,35.70
2018-04-13T22:19:07.184Z,37.27
2018-04-13T22:21:34.075Z,39.87
2018-04-13T22:24:00.955Z,36.17
2018-04-13T22:26:27.837Z,36.70
2018-04-13T22:28:54.808Z,43.67
2018-04-13T22:31:21.756Z,41.00
2018-04-13T22:33:48.613Z,39.27
2018-04-13T22:36:15.479Z,38.97
2018-04-13T22:38:42.340Z,40.40
2018-04-13T22:41:09.192Z,41.07
2018-04-13T22:43:36.252Z,40.67
2018-04-13T22:46:03.126Z,44.87
2018-04-13T22:48:29.984Z,41.80
2018-04-13T22:50:56.845Z,42.13
2018-04-13T22:53:23.781Z,41.33
2018-04-13T22:55:50.640Z,38.33
2018-04-13T22:58:17.503Z,43.27
2018-04-13T23:00:44.454Z,40.67
2018-04-13T23:03:11.414Z,37.13
2018-04-13T23:05:38.386Z,40.20
2018-04-13T23:08:05.231Z,35.73
2018-04-13T23:10:32.091Z,37.60
2018-04-13T23:12:59.041Z,38.20
2018-04-13T23:15:25.907Z,36.73
2018-04-13T23:17:52.759Z,37.70
2018-04-13T23:20:19.716Z,41.00
2018-04-13T23:22:46.563Z,40.37
2018-04-13T23:25:13.428Z,42.17
2018-04-13T23:27:40.391Z,39.50
2018-04-13T23:30:07.349Z,41.00
2018-04-13T23:32:34.238Z,39.93
2018-04-13T23:35:01.165Z,39.57
2018-04-13T23:37:28.063Z,41.20
2018-04-13T23:39:55.327Z,40.90
2018-04-13T23:42:22.249Z,43.70
2018-04-13T23:44:49.184Z,43.00
2018-04-13T23:47:16.443Z,48.97
2018-04-13T23:49:43.307Z,46.23
2018-04-13T23:52:10.582Z,47.67
2018-04-13T23:54:37.458Z,44.53
2018-04-13T23:57:04.326Z,44.93
2018-04-13T23:59:31.279Z,50.17
